EGNS Airport Information

Runway Information
Runway 03 Length 3934 ft width 151 ft
Elevation 23 ft Threshold 312 ft Heading 28
Runway 21 Length 3934 ft Width 151 ft
Elevation 52 ft Threshold 0 ft Heading 208
Runway 08 Length 5751 ft width 151 ft
Elevation 29 ft Threshold 951 ft Heading 78
Runway 26 Length 5751 ft Width 151 ft
Elevation 32 ft Threshold 459 ft Heading 258
Runway 17 Length 2963 ft width 89 ft
Elevation 0 ft Threshold 0 ft Heading 175
Runway 35 Length 2963 ft Width 89 ft
Elevation 18 ft Threshold 0 ft Heading 355
Airport Frequencies
Type APP Name RONALDSWAY Frequency 120.85 MHZ
Type ATIS Name ATIS Frequency 123.875 MHZ
Type TWR Name RONALDSWAY Frequency 118.9 MHZ
Airport Navaids
Type NDB Name Carnane Frequency 367 KHZ
Type VOR-DME Name Isle Of Man Frequency 112200 KHZ
Airport Weather Information & NOTAM
ADDS - METARS form results

(0706 UTC 20 May 2022)
Data provider http://aviationweather.gov/metar/data/
 
METAR text: EGNS 200650Z 19012KT 9999 FEW008 12/10 Q1014 NOSIG
Conditions at: EGNS (ISLE OF MAN/RONA, IM) observed 0650 UTC 20 May 2022
Temperature: 12.0°C (54°F)
Dewpoint: 10.0°C (50°F) [RH = 88%]
Pressure (altimeter): 29.94 inches Hg (1014.0 mb)
Winds: from the S (190 degrees) at 14 MPH (12 knots; 6.2 m/s)
Visibility: 6 or more miles (10+ km)
Ceiling: at least 12,000 feet AGL
Clouds: few clouds at 800 feet AGL
Weather: no significant weather observed at this time

METAR text: EGNS 200620Z 18008KT 9999 FEW005 SCT008 BKN047 12/11 Q1015 TEMPO BKN006
Conditions at: EGNS (ISLE OF MAN/RONA, IM) observed 0620 UTC 20 May 2022
Temperature: 12.0°C (54°F)
Dewpoint: 11.0°C (52°F) [RH = 94%]
Pressure (altimeter): 29.97 inches Hg (1015.0 mb)
Winds: from the S (180 degrees) at 9 MPH (8 knots; 4.1 m/s)
Visibility: 6 or more miles (10+ km)
Ceiling: 4700 feet AGL
Clouds: few clouds at 500 feet AGL
scattered clouds at 800 feet AGL
broken clouds at 4700 feet AGL
Weather: no significant weather observed at this time

Forecast for: AMD
Text: TAF AMD EGNS 200550Z 2006/2015 19015KT 9999 SCT006
Forecast period: 0600 to 1500 UTC 20 May 2022
Forecast type: FROM: standard forecast or significant change
Winds: from the S (190 degrees) at 17 MPH (15 knots; 7.7 m/s)
Visibility: 6 or more miles (10+ km)
Ceiling: at least 12,000 feet AGL
Clouds: scattered clouds at 600 feet AGL
Weather: no significant weather forecast for this period
Text: PROB30
Forecast period: 0600 to 1000 UTC 20 May 2022
Forecast type: TEMPORARY: The following changes expected for less than half the time period
Visibility: 3 miles (5 km)
Ceiling: 400 feet AGL
Clouds: broken clouds at 400 feet AGL
Weather: BR  (mist)
Text: TEMPO 2006/2010 5000 BR BKN004
Forecast period: 1200 to 1500 UTC 20 May 2022
Forecast type: TEMPORARY: The following changes expected for less than half the time period
Visibility: 1.86 miles (2.99 km)
Ceiling: 400 feet AGL
Clouds: broken clouds at 400 feet AGL
Weather: -RA -DZ  (light rain, light drizzle)